Flight Track Log - Related Links

Times and Time Zones

All times are in EDT time to prevent confusion due to time zone crossing. See the SWA2353 flight status page for this flight to view local times or setup timezone preferences in your user account.

Time Position Orientation Groundspeed Altitude Reporting Facility
EDT Latitude Longitude Course Direction KTS MPH feet Rate Location/Type
Sun 10:55:04 PM 38.7939 -90.3947 320° Northwest 202 232 3,800  Level Kansas City Center
Sun 10:56:05 PM 38.8531 -90.3772 13° North 243 280 8,200 4,033 Climbing Kansas City Center
Sun 10:57:06 PM 38.8761 -90.2608 76° East 277 319 12,000 3,197 Climbing Kansas City Center
Sun 10:58:07 PM 38.9025 -90.1367 75° East 345 397 14,700 3,098 Climbing Kansas City Center
Sun 10:59:08 PM 38.9297 -90.0047 75° East 372 428 18,300 3,197 Climbing Kansas City Center
Sun 11:00:09 PM 38.9553 -89.8706 76° East 388 447 21,200 2,803 Climbing Kansas City Center
Sun 11:01:10 PM 38.9861 -89.7172 75° East 407 468 24,000 2,607 Climbing Kansas City Center
Sun 11:02:11 PM 39.0150 -89.5703 76° East 421 484 26,500 2,557 Climbing Kansas City Center
Sun 11:03:12 PM 39.0436 -89.4222 76° East 424 488 29,200 2,213 Climbing Kansas City Center
Sun 11:04:13 PM 39.0700 -89.2811 76° East 410 472 31,000 885 Climbing Kansas City Center
Sun 11:05:14 PM 39.0975 -89.1425 76° East 403 464 31,000 98 Level Kansas City Center
Sun 11:06:15 PM 39.1267 -88.9922 76° East 403 464 31,200 1,230 Climbing Kansas City Center
Sun 11:07:16 PM 39.1528 -88.8744 74° East 404 465 33,500 1,869 Climbing Kansas City Center
Sun 11:08:17 PM 39.1775 -88.7378 77° East 399 459 35,000 1,279 Climbing Kansas City Center
Sun 11:09:18 PM 39.2042 -88.5911 77° East 403 464 36,100 1,279 Climbing Kansas City Center
Sun 11:10:19 PM 39.2325 -88.4431 76° East 417 480 37,600 1,328 Climbing Kansas City Center
Sun 11:11:20 PM 39.2606 -88.2947 76° East 423 487 38,800 1,377 Climbing Kansas City Center
Sun 11:12:21 PM 39.2942 -88.1153 76° East 425 489 40,400 1,082 Climbing Kansas City Center
Sun 11:13:22 PM 39.3203 -87.9656 77° East 425 489 41,000 310 Climbing Kansas City Center
Sun 11:14:17 PM 39.3411 -87.8450 77° East 433 498 41,000  Level Indianapolis Center
Sun 11:15:17 PM 39.3686 -87.6917 77° East 436 502 41,000  Level Indianapolis Center
Sun 11:16:18 PM 39.3947 -87.5450 77° East 434 499 41,000  Level Indianapolis Center
Sun 11:17:19 PM 39.4217 -87.3933 77° East 435 501 41,000  Level Indianapolis Center
Sun 11:18:19 PM 39.4481 -87.2442 77° East 429 494 41,000  Level Indianapolis Center
Sun 11:19:20 PM 39.4786 -87.0678 77° East 422 486 41,000  Level Indianapolis Center
Sun 11:20:21 PM 39.5044 -86.9214 77° East 419 482 41,000  Level Indianapolis Center
Sun 11:21:22 PM 39.5294 -86.7756 77° East 418 481 41,000  Level Indianapolis Center
Sun 11:22:22 PM 39.5542 -86.6300 78° East 417 480 41,000  Level Indianapolis Center
Sun 11:23:23 PM 39.5786 -86.4842 78° East 420 483 41,000  Level Indianapolis Center
Sun 11:24:24 PM 39.6019 -86.3392 78° East 419 482 41,000  Level Indianapolis Center
Sun 11:25:24 PM 39.6267 -86.1956 77° East 420 483 41,000  Level Indianapolis Center
Sun 11:26:25 PM 39.6500 -86.0497 78° East 422 486 41,000  Level Indianapolis Center
Sun 11:27:25 PM 39.6742 -85.9022 78° East 423 487 41,000  Level Indianapolis Center
Sun 11:28:26 PM 39.7031 -85.7236 78° East 425 489 41,000  Level Indianapolis Center
Sun 11:29:27 PM 39.7278 -85.5719 78° East 431 496 41,000  Level Indianapolis Center
Sun 11:30:27 PM 39.7517 -85.4203 78° East 431 496 41,000  Level Indianapolis Center
Sun 11:31:28 PM 39.7550 -85.2642 88° East 435 501 41,000  Level Indianapolis Center
Sun 11:32:28 PM 39.7514 -85.1075 92° East 434 499 41,000  Level Indianapolis Center
Sun 11:33:29 PM 39.7483 -84.9519 91° East 434 499 41,000  Level Indianapolis Center
Sun 11:34:29 PM 39.7447 -84.7881 92° East 435 501 41,000  Level Indianapolis Center
Sun 11:35:30 PM 39.7411 -84.6292 92° East 436 502 41,000  Level Indianapolis Center
Sun 11:36:30 PM 39.7369 -84.4719 92° East 434 499 41,000  Level Indianapolis Center
Sun 11:37:31 PM 39.7331 -84.3136 92° East 436 502 41,000  Level Indianapolis Center
Sun 11:38:31 PM 39.7292 -84.1569 92° East 433 498 41,000  Level Indianapolis Center
Sun 11:39:32 PM 39.7247 -83.9992 92° East 434 499 41,000  Level Indianapolis Center
Sun 11:40:32 PM 39.7194 -83.8422 92° East 433 498 41,000  Level Indianapolis Center
Sun 11:41:32 PM 39.7147 -83.6844 92° East 436 502 41,000  Level Indianapolis Center
Sun 11:42:33 PM 39.7094 -83.5281 92° East 438 504 41,000  Level Indianapolis Center
Sun 11:43:33 PM 39.7047 -83.3708 92° East 441 507 41,000  Level Indianapolis Center
Sun 11:44:34 PM 39.7003 -83.2147 92° East 436 502 41,000  Level Indianapolis Center
Sun 11:45:34 PM 39.6936 -83.0556 93° East 438 504 41,000  Level Indianapolis Center
Sun 11:46:34 PM 39.6886 -82.8969 92° East 438 504 41,000  Level Indianapolis Center
Sun 11:47:35 PM 39.6822 -82.7381 93° East 440 506 41,000  Level Indianapolis Center
Sun 11:48:35 PM 39.6756 -82.5792 93° East 438 504 41,000  Level Indianapolis Center
Sun 11:49:35 PM 39.6689 -82.4203 93° East 438 504 41,000  Level Indianapolis Center
Sun 11:50:36 PM 39.6625 -82.2611 93° East 438 504 41,000  Level Indianapolis Center
Sun 11:51:36 PM 39.6544 -82.0939 94° East 438 504 41,000  Level Indianapolis Center
Sun 11:52:36 PM 39.6489 -81.9678 93° East 437 503 41,000  Level Indianapolis Center
Sun 11:53:37 PM 39.6414 -81.8111 94° East 434 499 41,000  Level Indianapolis Center
Sun 11:54:37 PM 39.6347 -81.6550 93° East 433 498 41,000  Level Indianapolis Center
Sun 11:55:00 PM 39.6333 -81.5831 91° East 431 496 41,000  Level Cleveland Center
Sun 11:56:00 PM 39.6261 -81.4292 93° East 426 490 41,000  Level Cleveland Center
Sun 11:57:00 PM 39.6169 -81.2756 94° East 426 490 41,000  Level Cleveland Center
Sun 11:58:00 PM 39.6072 -81.1192 95° East 426 490 41,000  Level Cleveland Center
Sun 11:58:38 PM 39.6022 -81.0278 94° East 437 503 41,000  Level Indianapolis Center
Sun 11:59:38 PM 39.5947 -80.8697 93° East 437 503 41,000  Level Indianapolis Center
Mon 12:00:39 AM 39.5850 -80.7122 95° East 436 502 41,000  Level Indianapolis Center
Mon 12:01:39 AM 39.5750 -80.5539 95° East 438 504 41,000  Level Indianapolis Center
Mon 12:02:12 AM 39.5739 -80.4567 91° East 436 502 41,000  Level Washington Center
Mon 12:03:12 AM 39.5633 -80.3025 95° East 436 502 41,000  Level Washington Center
Mon 12:04:14 AM 39.5547 -80.1431 94° East 441 507 41,000  Level Washington Center
Mon 12:05:14 AM 39.5419 -79.9836 96° East 441 507 41,000  Level Washington Center
Mon 12:06:12 AM 39.5308 -79.8267 95° East 446 513 41,000  Level Washington Center
Mon 12:07:12 AM 39.5219 -79.6675 94° East 446 513 41,000  Level Washington Center
Mon 12:08:13 AM 39.5111 -79.4894 94° East 451 519 41,000  Level Washington Center
Mon 12:09:12 AM 39.5014 -79.3300 94° East 445 512 41,000  Level Washington Center
Mon 12:10:12 AM 39.4892 -79.1842 96° East 445 512 41,000  Level Washington Center
Mon 12:11:12 AM 39.4772 -79.0250 96° East 445 512 41,000  Level Washington Center
Mon 12:12:12 AM 39.4672 -78.8658 95° East 445 512 41,000  Level Washington Center
Mon 12:13:15 AM 39.4525 -78.7067 97° East 445 512 41,000 -1,250 Level Washington Center
Mon 12:14:12 AM 39.4419 -78.5475 95° East 445 512 38,500 -3,378 Descending Washington Center
Mon 12:15:14 AM 39.4292 -78.3886 96° East 445 512 34,300 -4,230 Descending Washington Center
Mon 12:16:14 AM 39.4161 -78.2269 96° East 445 512 29,900 -4,831 Descending Washington Center
Mon 12:17:12 AM 39.4047 -78.0733 95° East 445 512 24,800 -5,381 Descending Washington Center
Mon 12:18:49 AM 39.3833 -77.8000 96° East 427 491 16,000 -4,800 Descending Potomac TRACON
Mon 12:19:12 AM 39.3942 -77.7561 72° East 428 493 15,200 -3,325 Descending Washington Center
Mon 12:20:12 AM 39.3797 -77.6322 99° East 388 447 11,400 -3,216 Descending Washington Center
Mon 12:20:49 AM 39.3667 -77.5667 104° East 321 369 10,000 -1,299 Descending Potomac TRACON
Mon 12:21:49 AM 39.3333 -77.4667 113° Southeast 278 320 9,300 -1,100 Descending Potomac TRACON
Mon 12:22:49 AM 39.3167 -77.3667 102° East 270 311 7,800 -1,500 Descending Potomac TRACON
Mon 12:23:49 AM 39.2833 -77.2833 117° Southeast 264 304 6,300 -1,550 Descending Potomac TRACON
Mon 12:24:49 AM 39.2667 -77.2000 104° East 259 298 4,700 -1,150 Descending Potomac TRACON
Mon 12:25:49 AM 39.2500 -77.1167 104° East 250 288 4,000 -350 Descending Potomac TRACON
Mon 12:26:49 AM 39.2167 -77.0333 117° Southeast 237 273 4,000 -50 Level Potomac TRACON
Mon 12:27:49 AM 39.2000 -76.9500 104° East 240 276 3,900 -474 Descending Potomac TRACON
Mon 12:28:43 AM 39.1833 -76.8833 108° East 214 246 3,100 -947 Descending Potomac TRACON
Mon 12:29:43 AM 39.1833 -76.8167 90° East 182 209 2,100 -900 Descending Potomac TRACON
Mon 12:30:43 AM 39.1833 -76.7667 90° East 136 157 1,300 -700 Descending Potomac TRACON
Mon 12:31:43 AM 39.1833 -76.7167 90° East 114 131 700 -600 Descending Potomac TRACON
Mon 12:33:00 AM 39.1667 -76.6667 142° Southeast  Level FlightAware Approximate
Mon 12:40:00 AM 39.1754 -76.6683 142° Southeast  Level Estimated
Mon 12:41:00 AM 39.1754 -76.6683 142° Southeast  Level Estimated
Mon 12:42:00 AM 39.1754 -76.6683 142° Southeast  Level Estimated
Mon 12:43:00 AM 39.1754 -76.6683 142° Southeast  Level Estimated

Login

Don't have an account? Register now (free) for customized features, flight alerts, and more!